Time;durP1;ratioP1;P1;durP2;ratioP2;P2;SDS_P1;SDS_P2;PMS_P1;PMS_P2;Temp;Humidity;BMP_temperature;BMP_pressure;BME280_temperature;BME280_humidity;BME280_pressure;Samples;Min_cycle;Max_cycle;Signal;HPM_P1;HPM_P2
2024/02/27 00:01:57;;;;;;;36.13;22.92;;;;;;;;;;5021319;28;20024;-61
2024/02/27 00:04:22;;;;;;;37.20;22.58;;;;;;;;;;5056041;28;20479;-66
2024/02/27 00:06:49;;;;;;;34.60;22.50;;;;;;;;;;5037674;28;20025;-66
2024/02/27 00:09:18;;;;;;;33.03;22.35;;;;;;;;;;5037603;28;20020;-70
2024/02/27 00:11:44;;;;;;;34.90;22.20;;;;;;;;;;5055880;28;20025;-66
2024/02/27 00:14:09;;;;;;;29.80;19.00;;;;;;;;;;5055360;28;20107;-66
2024/02/27 00:16:35;;;;;;;26.35;17.98;;;;;;;;;;5055190;28;20068;-65
2024/02/27 00:19:01;;;;;;;26.60;18.20;;;;;;;;;;5037613;28;20024;-65
2024/02/27 00:21:26;;;;;;;28.52;19.00;;;;;;;;;;5037258;28;20100;-66
2024/02/27 00:23:52;;;;;;;30.90;21.40;;;;;;;;;;5055080;28;20041;-66
2024/02/27 00:26:17;;;;;;;38.55;22.65;;;;;;;;;;5054900;28;20032;-66
2024/02/27 00:28:43;;;;;;;34.55;22.55;;;;;;;;;;5054625;28;20457;-66
2024/02/27 00:31:08;;;;;;;34.08;23.67;;;;;;;;;;5037109;28;20029;-66
2024/02/27 00:33:34;;;;;;;35.17;22.55;;;;;;;;;;5054886;28;20021;-65
2024/02/27 00:36:02;;;;;;;30.50;21.10;;;;;;;;;;5055101;28;20184;-65
2024/02/27 00:38:27;;;;;;;30.27;20.90;;;;;;;;;;5055077;28;20033;-65
2024/02/27 00:40:53;;;;;;;31.45;21.33;;;;;;;;;;5054678;28;20044;-65
2024/02/27 00:43:18;;;;;;;33.22;21.65;;;;;;;;;;5054865;28;20032;-65
2024/02/27 00:45:44;;;;;;;32.85;22.65;;;;;;;;;;5054701;28;20033;-65
2024/02/27 00:48:09;;;;;;;27.05;20.50;;;;;;;;;;5055171;28;20013;-65
2024/02/27 00:50:35;;;;;;;29.70;20.63;;;;;;;;;;5037282;28;20151;-65
2024/02/27 00:53:00;;;;;;;26.85;19.27;;;;;;;;;;5036980;28;20059;-65
2024/02/27 00:55:28;;;;;;;28.48;20.77;;;;;;;;;;5054565;28;20024;-65
2024/02/27 00:57:53;;;;;;;29.90;20.88;;;;;;;;;;5055044;28;20044;-65
2024/02/27 01:00:19;;;;;;;29.73;20.27;;;;;;;;;;5054459;28;20021;-66
2024/02/27 01:02:44;;;;;;;27.73;19.38;;;;;;;;;;5054229;28;20404;-66
2024/02/27 01:05:10;;;;;;;27.50;18.85;;;;;;;;;;5054455;28;20495;-65
2024/02/27 01:07:36;;;;;;;30.15;20.17;;;;;;;;;;5054520;28;20167;-66
2024/02/27 01:10:01;;;;;;;32.72;20.00;;;;;;;;;;5073699;22;20055;-62
2024/02/27 01:12:27;;;;;;;31.50;20.15;;;;;;;;;;5094369;28;20024;-65
2024/02/27 01:14:53;;;;;;;30.52;18.98;;;;;;;;;;5076470;28;20459;-65
2024/02/27 01:17:18;;;;;;;27.55;19.55;;;;;;;;;;5094208;28;20024;-65
2024/02/27 01:19:44;;;;;;;30.20;19.38;;;;;;;;;;5094448;28;20058;-65
2024/02/27 01:22:09;;;;;;;27.65;19.02;;;;;;;;;;5076623;28;20436;-64
2024/02/27 01:24:35;;;;;;;27.15;18.85;;;;;;;;;;5076488;28;20028;-64
2024/02/27 01:27:01;;;;;;;38.13;23.23;;;;;;;;;;5094435;28;20024;-64
2024/02/27 01:29:26;;;;;;;32.28;20.23;;;;;;;;;;5094295;28;20024;-59
2024/02/27 01:31:55;;;;;;;28.70;19.05;;;;;;;;;;5075834;28;20544;-58
2024/02/27 01:34:20;;;;;;;27.85;19.17;;;;;;;;;;5094265;28;20078;-59
2024/02/27 01:36:46;;;;;;;30.13;20.08;;;;;;;;;;5094241;28;20421;-59
2024/02/27 01:39:11;;;;;;;32.78;20.08;;;;;;;;;;5103005;22;20816;-63
2024/02/27 01:41:40;;;;;;;29.52;19.45;;;;;;;;;;5074623;28;20035;-62
2024/02/27 01:44:07;;;;;;;33.22;20.23;;;;;;;;;;5076002;28;20361;-59
2024/02/27 01:46:38;;;;;;;30.00;19.27;;;;;;;;;;5093695;28;20070;-60
2024/02/27 01:49:03;;;;;;;29.52;18.85;;;;;;;;;;5094074;28;20028;-60
2024/02/27 01:51:29;;;;;;;26.77;18.60;;;;;;;;;;5094033;28;20032;-62
2024/02/27 01:53:56;;;;;;;26.58;19.45;;;;;;;;;;5058963;28;20020;-61
2024/02/27 01:56:22;;;;;;;23.38;16.98;;;;;;;;;;5075677;28;20498;-62
2024/02/27 01:58:48;;;;;;;25.30;17.45;;;;;;;;;;5075787;28;20031;-62
2024/02/27 02:01:14;;;;;;;20.92;15.88;;;;;;;;;;5076069;28;20028;-62
2024/02/27 02:03:40;;;;;;;20.40;14.88;;;;;;;;;;5094021;28;20404;-61
2024/02/27 02:06:06;;;;;;;19.63;14.90;;;;;;;;;;5093958;28;20038;-62
2024/02/27 02:08:32;;;;;;;21.73;15.18;;;;;;;;;;5093823;28;20091;-61
2024/02/27 02:10:58;;;;;;;19.38;14.77;;;;;;;;;;5093748;28;20028;-62
2024/02/27 02:13:24;;;;;;;19.10;14.77;;;;;;;;;;5093831;28;20065;-62
2024/02/27 02:15:49;;;;;;;18.85;14.32;;;;;;;;;;5093675;28;20059;-61
2024/02/27 02:18:15;;;;;;;22.60;15.52;;;;;;;;;;5075339;28;20072;-61
2024/02/27 02:20:40;;;;;;;19.98;14.98;;;;;;;;;;5093639;28;20115;-61
2024/02/27 02:23:06;;;;;;;20.45;15.82;;;;;;;;;;5093476;28;20425;-61
2024/02/27 02:25:32;;;;;;;22.13;16.15;;;;;;;;;;5093320;28;20020;-61
2024/02/27 02:27:58;;;;;;;21.05;16.70;;;;;;;;;;5058882;28;20024;-60
2024/02/27 02:30:24;;;;;;;22.90;15.82;;;;;;;;;;5093302;28;20157;-60
2024/02/27 02:32:50;;;;;;;19.33;15.00;;;;;;;;;;5093613;28;20024;-60
2024/02/27 02:35:15;;;;;;;19.73;15.60;;;;;;;;;;5093346;28;20032;-61
2024/02/27 02:37:47;;;;;;;21.13;15.18;;;;;;;;;;5093969;28;20032;-59
2024/02/27 02:40:13;;;;;;;20.08;15.30;;;;;;;;;;5093526;28;20376;-59
2024/02/27 02:42:38;;;;;;;19.77;15.35;;;;;;;;;;5093322;28;20020;-59
2024/02/27 02:45:04;;;;;;;21.70;15.20;;;;;;;;;;5093218;28;20047;-60
2024/02/27 02:47:31;;;;;;;20.25;14.73;;;;;;;;;;5093558;28;20028;-60
2024/02/27 02:49:56;;;;;;;20.55;14.63;;;;;;;;;;5058290;28;20031;-60
2024/02/27 02:52:22;;;;;;;18.95;15.10;;;;;;;;;;5095588;28;20103;-60
2024/02/27 02:54:47;;;;;;;22.63;15.82;;;;;;;;;;5097039;28;20028;-61
2024/02/27 02:57:12;;;;;;;19.02;14.85;;;;;;;;;;5097190;28;20024;-61
2024/02/27 02:59:38;;;;;;;16.77;13.63;;;;;;;;;;5097219;28;20056;-61
2024/02/27 03:02:03;;;;;;;17.13;13.75;;;;;;;;;;5096818;28;20379;-61
2024/02/27 03:04:29;;;;;;;18.33;14.25;;;;;;;;;;5096835;28;20119;-61
2024/02/27 03:06:54;;;;;;;17.40;13.73;;;;;;;;;;5097098;28;20028;-60
2024/02/27 03:09:20;;;;;;;17.92;13.85;;;;;;;;;;5097019;28;20031;-63
2024/02/27 03:11:49;;;;;;;21.55;14.48;;;;;;;;;;5095621;28;20035;-59
2024/02/27 03:14:17;;;;;;;17.88;14.00;;;;;;;;;;5096830;28;20428;-60
2024/02/27 03:16:45;;;;;;;20.10;14.35;;;;;;;;;;5100551;22;20057;-63
2024/02/27 03:19:13;;;;;;;18.35;14.52;;;;;;;;;;5054570;28;20420;-63
2024/02/27 03:21:39;;;;;;;16.83;14.18;;;;;;;;;;5054954;28;20040;-64
2024/02/27 03:24:05;;;;;;;17.90;14.18;;;;;;;;;;5054926;28;20025;-66
2024/02/27 03:26:30;;;;;;;20.42;14.38;;;;;;;;;;5056170;28;20481;-65
2024/02/27 03:28:56;;;;;;;18.58;13.73;;;;;;;;;;5056065;28;20527;-65
2024/02/27 03:31:22;;;;;;;17.42;13.60;;;;;;;;;;5055429;28;20035;-65
2024/02/27 03:33:47;;;;;;;17.83;14.77;;;;;;;;;;5055965;28;20028;-65
2024/02/27 03:36:13;;;;;;;17.13;13.73;;;;;;;;;;5055968;28;20033;-65
2024/02/27 03:38:38;;;;;;;16.85;13.15;;;;;;;;;;5054577;28;20096;-65
2024/02/27 03:41:04;;;;;;;18.38;13.60;;;;;;;;;;5054583;28;20029;-65
2024/02/27 03:43:29;;;;;;;15.30;12.80;;;;;;;;;;5055885;28;20476;-65
2024/02/27 03:45:54;;;;;;;17.15;12.45;;;;;;;;;;5055799;28;20120;-65
2024/02/27 03:48:20;;;;;;;16.88;12.98;;;;;;;;;;5069100;22;20072;-65
2024/02/27 03:50:45;;;;;;;17.60;13.18;;;;;;;;;;5055885;28;20033;-62
2024/02/27 03:53:11;;;;;;;17.40;13.52;;;;;;;;;;5055779;28;20028;-62
2024/02/27 03:55:36;;;;;;;17.13;12.25;;;;;;;;;;5055788;28;20516;-62
2024/02/27 03:58:02;;;;;;;14.65;11.93;;;;;;;;;;5055536;28;20053;-64
2024/02/27 04:00:29;;;;;;;15.68;10.80;;;;;;;;;;5099062;22;20056;-61
2024/02/27 04:02:55;;;;;;;14.15;11.73;;;;;;;;;;5079561;22;20052;-65
2024/02/27 04:05:20;;;;;;;16.42;12.05;;;;;;;;;;5057441;28;20035;-65
2024/02/27 04:07:46;;;;;;;15.93;12.43;;;;;;;;;;5075588;28;20036;-65
2024/02/27 04:10:11;;;;;;;14.70;11.63;;;;;;;;;;5075331;28;20032;-66
2024/02/27 04:12:37;;;;;;;14.02;11.13;;;;;;;;;;5075555;28;20070;-66
2024/02/27 04:15:02;;;;;;;14.00;11.38;;;;;;;;;;5058001;28;20024;-66
2024/02/27 04:17:28;;;;;;;14.95;12.00;;;;;;;;;;5040673;28;20028;-66
2024/02/27 04:19:57;;;;;;;15.35;12.23;;;;;;;;;;5075395;28;20103;-65
2024/02/27 04:22:23;;;;;;;16.33;13.27;;;;;;;;;;5075623;28;20103;-65
2024/02/27 04:24:48;;;;;;;21.48;15.70;;;;;;;;;;5057138;28;20112;-65
2024/02/27 04:27:14;;;;;;;27.92;16.10;;;;;;;;;;5057373;28;20468;-65
2024/02/27 04:29:42;;;;;;;24.35;13.98;;;;;;;;;;5057662;28;20032;-66
2024/02/27 04:32:08;;;;;;;22.65;14.75;;;;;;;;;;5074916;28;20032;-68
2024/02/27 04:34:33;;;;;;;22.27;14.77;;;;;;;;;;5057273;28;20024;-68
2024/02/27 04:36:59;;;;;;;24.40;14.27;;;;;;;;;;5075081;28;20033;-68
2024/02/27 04:39:25;;;;;;;22.92;14.15;;;;;;;;;;5056972;28;20024;-68
2024/02/27 04:41:50;;;;;;;21.85;13.52;;;;;;;;;;5074961;28;20037;-68
2024/02/27 04:44:18;;;;;;;16.35;12.32;;;;;;;;;;5056700;28;20040;-67
2024/02/27 04:46:44;;;;;;;16.60;12.68;;;;;;;;;;5056749;28;20130;-66
2024/02/27 04:49:09;;;;;;;15.75;12.32;;;;;;;;;;5040138;28;20466;-67
2024/02/27 04:51:35;;;;;;;17.40;14.20;;;;;;;;;;5074895;28;20471;-68
2024/02/27 04:54:01;;;;;;;21.80;16.17;;;;;;;;;;5074407;28;20708;-68
2024/02/27 04:56:26;;;;;;;20.25;16.48;;;;;;;;;;5074199;28;20171;-68
2024/02/27 04:58:52;;;;;;;20.85;15.82;;;;;;;;;;5074928;28;20062;-70
2024/02/27 05:01:17;;;;;;;21.48;14.65;;;;;;;;;;5084548;28;20125;-68
2024/02/27 05:03:43;;;;;;;20.38;14.52;;;;;;;;;;5094791;28;20379;-68
2024/02/27 05:06:08;;;;;;;15.85;12.70;;;;;;;;;;5094915;28;20032;-70
2024/02/27 05:08:35;;;;;;;18.75;13.40;;;;;;;;;;5094229;28;20372;-70
2024/02/27 05:11:00;;;;;;;15.55;12.35;;;;;;;;;;5093338;28;20455;-73
2024/02/27 05:13:26;;;;;;;17.30;12.35;;;;;;;;;;5092489;28;20024;-66
2024/02/27 05:15:52;;;;;;;15.93;12.23;;;;;;;;;;5092657;28;20020;-60
2024/02/27 05:18:18;;;;;;;17.90;11.98;;;;;;;;;;5093795;28;20073;-61
2024/02/27 05:20:43;;;;;;;16.25;12.10;;;;;;;;;;5093649;28;20085;-66
2024/02/27 05:23:13;;;;;;;18.33;11.25;;;;;;;;;;5093436;28;20602;-68
2024/02/27 05:25:39;;;;;;;;;;;;;;;;;;5094803;28;20460;-68
2024/02/27 05:28:04;;;;;;;13.32;11.52;;;;;;;;;;5075995;28;19996;-68
2024/02/27 05:30:30;;;;;;;15.40;12.25;;;;;;;;;;5094643;28;20048;-68
2024/02/27 05:32:56;;;;;;;15.18;11.02;;;;;;;;;;5076629;28;20032;-68
2024/02/27 05:35:22;;;;;;;16.75;12.27;;;;;;;;;;5094545;28;20036;-68
2024/02/27 05:37:49;;;;;;;14.30;11.32;;;;;;;;;;5094269;28;20016;-68
2024/02/27 05:40:14;;;;;;;15.27;11.77;;;;;;;;;;5094145;28;20020;-67
2024/02/27 05:42:40;;;;;;;14.48;11.98;;;;;;;;;;5093973;28;20353;-68
2024/02/27 05:45:06;;;;;;;15.50;12.27;;;;;;;;;;5094115;28;20056;-68
2024/02/27 05:47:31;;;;;;;13.48;11.32;;;;;;;;;;5094072;28;20039;-68
2024/02/27 05:49:58;;;;;;;14.50;11.88;;;;;;;;;;5094396;28;20032;-68
2024/02/27 05:52:23;;;;;;;16.20;12.52;;;;;;;;;;5093784;28;20031;-68
2024/02/27 05:54:49;;;;;;;13.68;11.88;;;;;;;;;;5093778;28;20028;-68
2024/02/27 05:57:14;;;;;;;14.38;11.45;;;;;;;;;;5075973;28;20069;-68
2024/02/27 05:59:40;;;;;;;15.75;11.75;;;;;;;;;;5093984;28;20082;-68
2024/02/27 06:02:05;;;;;;;14.85;11.75;;;;;;;;;;5094095;28;20521;-68
2024/02/27 06:04:34;;;;;;;13.63;11.93;;;;;;;;;;5093499;28;20079;-68
2024/02/27 06:06:59;;;;;;;13.15;11.13;;;;;;;;;;5093851;28;20028;-68
2024/02/27 06:09:25;;;;;;;17.20;13.95;;;;;;;;;;5081678;22;20056;-62
2024/02/27 06:11:50;;;;;;;16.13;13.15;;;;;;;;;;5072291;28;20416;-62
2024/02/27 06:14:16;;;;;;;16.42;13.05;;;;;;;;;;5073189;28;20029;-62
2024/02/27 06:16:42;;;;;;;18.08;12.98;;;;;;;;;;5073650;28;20040;-62
2024/02/27 06:22:11;;;;;;;18.52;12.73;;;;;;;;;;5097310;22;20044;-68
2024/02/27 06:24:37;;;;;;;16.02;13.68;;;;;;;;;;5073878;28;20056;-68
2024/02/27 06:27:03;;;;;;;15.25;11.95;;;;;;;;;;5075343;28;20060;-68
2024/02/27 06:29:28;;;;;;;12.68;11.35;;;;;;;;;;5077230;28;20071;-68
2024/02/27 06:31:54;;;;;;;17.55;12.25;;;;;;;;;;5077519;28;20032;-68
2024/02/27 06:34:19;;;;;;;16.63;12.32;;;;;;;;;;5075880;28;20028;-68
2024/02/27 06:36:45;;;;;;;17.92;12.75;;;;;;;;;;5076398;28;20032;-68
2024/02/27 06:39:10;;;;;;;19.45;13.90;;;;;;;;;;5076268;28;20101;-68
2024/02/27 06:41:36;;;;;;;18.92;13.63;;;;;;;;;;5076313;28;20032;-68
2024/02/27 06:44:01;;;;;;;17.83;13.25;;;;;;;;;;5076136;28;20028;-68
2024/02/27 06:46:26;;;;;;;18.55;13.80;;;;;;;;;;5075116;28;20115;-63
2024/02/27 06:48:52;;;;;;;17.63;13.45;;;;;;;;;;5075311;28;20020;-62
2024/02/27 06:51:18;;;;;;;17.05;13.07;;;;;;;;;;5075206;28;20384;-62
2024/02/27 06:53:45;;;;;;;18.70;13.73;;;;;;;;;;5074866;28;20115;-63
2024/02/27 06:56:11;;;;;;;17.90;12.75;;;;;;;;;;5074879;28;20024;-62
2024/02/27 06:58:36;;;;;;;14.98;11.73;;;;;;;;;;5074839;28;20389;-62
2024/02/27 07:01:02;;;;;;;17.45;13.88;;;;;;;;;;5075237;28;20086;-62
2024/02/27 07:03:28;;;;;;;16.75;13.43;;;;;;;;;;5074790;28;20032;-62
2024/02/27 07:05:53;;;;;;;17.27;13.75;;;;;;;;;;5073345;28;20055;-62
2024/02/27 07:08:19;;;;;;;14.68;12.35;;;;;;;;;;5074763;28;20048;-62
2024/02/27 07:10:44;;;;;;;14.00;11.95;;;;;;;;;;5076442;28;20031;-62
2024/02/27 07:13:10;;;;;;;13.00;11.40;;;;;;;;;;5076650;28;20032;-62
2024/02/27 07:15:41;;;;;;;14.00;11.98;;;;;;;;;;5076379;28;20086;-62
2024/02/27 07:18:07;;;;;;;18.25;12.77;;;;;;;;;;5076926;28;20122;-68
2024/02/27 07:20:32;;;;;;;16.20;12.20;;;;;;;;;;5076624;28;20023;-68
2024/02/27 07:23:00;;;;;;;14.82;12.05;;;;;;;;;;5076078;28;20056;-68
2024/02/27 07:25:27;;;;;;;14.40;11.02;;;;;;;;;;5074914;28;20021;-68
2024/02/27 07:27:52;;;;;;;14.18;12.18;;;;;;;;;;5076080;28;20028;-68
2024/02/27 07:30:18;;;;;;;13.15;11.73;;;;;;;;;;5076385;28;20073;-68
2024/02/27 07:32:45;;;;;;;14.98;12.38;;;;;;;;;;5074922;28;20029;-68
2024/02/27 07:35:10;;;;;;;17.65;13.40;;;;;;;;;;5076594;28;20525;-68
2024/02/27 07:37:37;;;;;;;14.55;12.20;;;;;;;;;;5075401;28;20029;-68
2024/02/27 07:40:03;;;;;;;15.38;12.32;;;;;;;;;;5075506;28;20012;-68
2024/02/27 07:42:29;;;;;;;14.27;11.77;;;;;;;;;;5074610;28;20028;-68
2024/02/27 07:44:54;;;;;;;13.70;12.25;;;;;;;;;;5074585;28;20036;-68
2024/02/27 07:47:20;;;;;;;16.10;12.50;;;;;;;;;;5075736;28;20392;-68
2024/02/27 07:49:46;;;;;;;15.15;12.85;;;;;;;;;;5075779;28;20457;-68
2024/02/27 07:52:11;;;;;;;15.50;13.27;;;;;;;;;;5074822;28;20028;-68
2024/02/27 07:54:38;;;;;;;14.95;11.90;;;;;;;;;;5075955;28;20074;-68
2024/02/27 07:57:03;;;;;;;20.00;14.43;;;;;;;;;;5075871;28;20025;-68
2024/02/27 07:59:29;;;;;;;15.48;13.40;;;;;;;;;;5075482;28;20023;-68
2024/02/27 08:01:55;;;;;;;19.67;15.27;;;;;;;;;;5074269;28;20060;-68
2024/02/27 08:04:20;;;;;;;16.52;14.57;;;;;;;;;;5075472;28;20104;-68
2024/02/27 08:06:45;;;;;;;32.20;23.02;;;;;;;;;;5075612;28;20380;-68
2024/02/27 08:09:11;;;;;;;34.47;22.70;;;;;;;;;;5075611;28;20051;-68
2024/02/27 08:11:37;;;;;;;31.00;18.75;;;;;;;;;;5074157;28;20032;-68
2024/02/27 08:14:02;;;;;;;23.20;16.00;;;;;;;;;;5075834;28;20020;-68
2024/02/27 08:16:29;;;;;;;24.90;17.45;;;;;;;;;;5075453;28;20067;-68
2024/02/27 08:18:54;;;;;;;20.85;13.77;;;;;;;;;;5073893;28;20078;-68
2024/02/27 08:21:20;;;;;;;28.20;20.92;;;;;;;;;;5075542;28;20020;-68
2024/02/27 08:23:46;;;;;;;28.98;21.77;;;;;;;;;;5074157;28;20090;-68
2024/02/27 08:26:12;;;;;;;13.98;11.13;;;;;;;;;;5075521;28;20025;-68
2024/02/27 08:28:37;;;;;;;12.15;9.88;;;;;;;;;;5093021;22;20322;-62
2024/02/27 08:31:03;;;;;;;12.82;10.32;;;;;;;;;;5084359;22;20052;-67
2024/02/27 08:33:30;;;;;;;11.73;10.30;;;;;;;;;;5075210;28;20025;-68
2024/02/27 08:35:55;;;;;;;16.80;11.93;;;;;;;;;;5073618;28;20039;-68
2024/02/27 08:38:21;;;;;;;14.60;10.52;;;;;;;;;;5098434;22;20061;-63
2024/02/27 08:40:47;;;;;;;15.43;11.43;;;;;;;;;;5108047;22;20060;-63
2024/02/27 08:43:14;;;;;;;12.85;10.98;;;;;;;;;;5075235;28;20059;-68
2024/02/27 08:45:41;;;;;;;12.20;9.82;;;;;;;;;;5074661;28;20024;-68
2024/02/27 08:48:06;;;;;;;12.48;10.07;;;;;;;;;;5073262;28;20472;-68
2024/02/27 08:50:32;;;;;;;12.95;10.57;;;;;;;;;;5074171;28;20028;-68
2024/02/27 08:52:57;;;;;;;16.20;12.93;;;;;;;;;;5075093;28;20064;-68
2024/02/27 08:55:25;;;;;;;16.27;13.13;;;;;;;;;;5074788;28;20174;-68
2024/02/27 08:57:53;;;;;;;13.52;10.75;;;;;;;;;;5074693;28;20043;-68
2024/02/27 09:00:19;;;;;;;9.80;8.80;;;;;;;;;;5074589;28;20021;-68
2024/02/27 09:02:54;;;;;;;13.38;11.88;;;;;;;;;;5108306;22;20052;-63
2024/02/27 09:05:19;;;;;;;10.23;9.23;;;;;;;;;;5074850;28;20032;-62
2024/02/27 09:07:45;;;;;;;18.38;13.32;;;;;;;;;;5094715;28;20047;-62
2024/02/27 09:10:11;;;;;;;12.00;9.77;;;;;;;;;;5094748;28;20028;-62
2024/02/27 09:12:36;;;;;;;12.65;10.75;;;;;;;;;;5094389;28;20040;-62
2024/02/27 09:15:02;;;;;;;12.88;10.80;;;;;;;;;;5094369;28;20089;-62
2024/02/27 09:17:31;;;;;;;11.18;9.02;;;;;;;;;;5092999;28;20038;-62
2024/02/27 09:19:59;;;;;;;8.85;7.90;;;;;;;;;;5094278;28;20078;-62
2024/02/27 09:22:25;;;;;;;10.27;8.02;;;;;;;;;;5094525;28;20111;-68
2024/02/27 09:24:50;;;;;;;11.40;10.20;;;;;;;;;;5094485;28;20036;-62
2024/02/27 09:27:16;;;;;;;26.50;21.60;;;;;;;;;;5075935;28;20024;-62
2024/02/27 09:29:42;;;;;;;14.93;13.32;;;;;;;;;;5094111;28;20051;-62
2024/02/27 09:32:08;;;;;;;6.93;6.22;;;;;;;;;;5094348;28;20073;-62
2024/02/27 09:34:33;;;;;;;6.80;6.20;;;;;;;;;;5109861;28;20477;-62
2024/02/27 09:36:59;;;;;;;8.32;5.43;;;;;;;;;;5094294;28;20020;-63
2024/02/27 09:39:24;;;;;;;7.40;5.20;;;;;;;;;;5094212;28;20024;-62
2024/02/27 09:42:09;;;;;;;6.30;5.50;;;;;;;;;;5094227;28;20065;-62
2024/02/27 09:44:38;;;;;;;9.68;6.93;;;;;;;;;;5109603;28;20034;-62
2024/02/27 09:47:05;;;;;;;7.13;6.18;;;;;;;;;;5094073;28;20165;-62
2024/02/27 09:49:33;;;;;;;9.20;6.95;;;;;;;;;;5094091;28;20025;-62
2024/02/27 09:51:59;;;;;;;5.43;4.93;;;;;;;;;;5094066;28;20035;-62
2024/02/27 09:54:24;;;;;;;4.78;4.38;;;;;;;;;;5075710;28;20020;-62
2024/02/27 09:56:51;;;;;;;6.20;4.97;;;;;;;;;;5093801;28;20034;-62
2024/02/27 09:59:17;;;;;;;6.55;5.65;;;;;;;;;;5075650;28;20439;-62
2024/02/27 10:01:45;;;;;;;10.75;5.97;;;;;;;;;;5092904;28;20126;-62
2024/02/27 10:04:11;;;;;;;15.27;7.90;;;;;;;;;;5093620;28;20044;-62
2024/02/27 10:06:38;;;;;;;10.07;6.95;;;;;;;;;;5093523;28;20064;-62
2024/02/27 10:09:05;;;;;;;9.50;5.43;;;;;;;;;;5093825;28;20016;-62
2024/02/27 10:11:31;;;;;;;6.43;5.05;;;;;;;;;;5093857;28;20106;-63
2024/02/27 10:13:56;;;;;;;5.60;5.10;;;;;;;;;;5093606;28;20048;-63
2024/02/27 10:16:23;;;;;;;7.15;4.55;;;;;;;;;;5075363;28;20398;-62
2024/02/27 10:18:51;;;;;;;6.88;5.88;;;;;;;;;;5076307;28;20024;-63
2024/02/27 10:21:17;;;;;;;6.15;5.55;;;;;;;;;;5093510;28;20051;-62
2024/02/27 10:23:43;;;;;;;5.03;4.65;;;;;;;;;;5093768;28;20024;-63
2024/02/27 10:26:09;;;;;;;6.00;5.40;;;;;;;;;;5093427;28;20031;-62
2024/02/27 10:28:35;;;;;;;4.38;4.07;;;;;;;;;;5075300;28;20031;-63
2024/02/27 10:31:11;;;;;;;4.35;3.95;;;;;;;;;;5093445;28;20028;-62
2024/02/27 10:33:41;;;;;;;5.00;4.60;;;;;;;;;;5093714;28;20032;-62
2024/02/27 10:36:08;;;;;;;4.68;4.30;;;;;;;;;;5075266;28;20108;-62
2024/02/27 10:38:35;;;;;;;5.15;3.85;;;;;;;;;;5075605;28;20028;-62
2024/02/27 10:41:00;;;;;;;3.72;3.50;;;;;;;;;;5093592;28;20479;-62
2024/02/27 10:43:26;;;;;;;7.05;5.10;;;;;;;;;;5093305;28;20028;-62
2024/02/27 10:45:53;;;;;;;5.47;4.78;;;;;;;;;;5075474;28;20036;-62
2024/02/27 10:48:18;;;;;;;3.97;3.67;;;;;;;;;;5095252;22;20068;-68
2024/02/27 10:50:45;;;;;;;5.10;3.72;;;;;;;;;;5055452;28;20388;-68
2024/02/27 10:53:11;;;;;;;5.72;4.10;;;;;;;;;;5073083;28;20021;-67
2024/02/27 10:55:40;;;;;;;4.45;3.97;;;;;;;;;;5073177;28;20029;-62
2024/02/27 10:58:05;;;;;;;4.53;3.83;;;;;;;;;;5085644;22;20041;-63
2024/02/27 11:00:31;;;;;;;3.65;3.38;;;;;;;;;;5082719;22;20342;-62
2024/02/27 11:02:57;;;;;;;3.58;3.28;;;;;;;;;;5052029;28;20144;-62
2024/02/27 11:05:25;;;;;;;3.92;3.50;;;;;;;;;;5053166;28;20064;-62
2024/02/27 11:07:51;;;;;;;3.97;3.42;;;;;;;;;;5051532;28;20030;-63
2024/02/27 11:10:17;;;;;;;3.90;3.60;;;;;;;;;;5053667;28;20373;-63
2024/02/27 11:12:45;;;;;;;4.35;2.80;;;;;;;;;;5054003;28;20420;-62
2024/02/27 11:15:12;;;;;;;4.43;3.28;;;;;;;;;;5056358;28;20477;-62
2024/02/27 11:17:42;;;;;;;6.15;4.28;;;;;;;;;;5056334;28;20051;-62
2024/02/27 11:20:08;;;;;;;4.43;3.60;;;;;;;;;;5056629;28;20036;-63
2024/02/27 11:22:35;;;;;;;5.20;3.35;;;;;;;;;;5056577;28;20114;-62
2024/02/27 11:25:03;;;;;;;4.15;3.42;;;;;;;;;;5056535;28;20102;-62
2024/02/27 11:27:28;;;;;;;4.15;3.25;;;;;;;;;;5054871;28;20021;-68
2024/02/27 11:29:57;;;;;;;3.78;3.47;;;;;;;;;;5054909;28;20086;-63
2024/02/27 11:32:23;;;;;;;7.65;4.63;;;;;;;;;;5054874;28;20366;-62
2024/02/27 11:34:48;;;;;;;5.25;3.83;;;;;;;;;;5056364;28;20028;-62
2024/02/27 11:37:16;;;;;;;3.97;3.58;;;;;;;;;;5056311;28;20060;-62
2024/02/27 11:39:42;;;;;;;3.72;3.33;;;;;;;;;;5056286;28;20032;-62
2024/02/27 11:42:20;;;;;;;4.32;3.20;;;;;;;;;;5055496;28;20033;-63
2024/02/27 11:45:09;;;;;;;4.05;3.65;;;;;;;;;;5055843;28;20028;-62
2024/02/27 11:47:41;;;;;;;5.93;3.00;;;;;;;;;;5045429;28;20048;-62
2024/02/27 11:50:10;;;;;;;4.13;3.50;;;;;;;;;;5054894;28;20460;-63
2024/02/27 11:52:36;;;;;;;3.67;3.35;;;;;;;;;;5055750;28;20088;-62
2024/02/27 11:55:06;;;;;;;3.67;3.38;;;;;;;;;;5055708;28;20052;-62
2024/02/27 11:57:33;;;;;;;5.67;3.57;;;;;;;;;;5070843;22;20057;-68
2024/02/27 12:00:09;;;;;;;5.80;3.20;;;;;;;;;;5054636;28;20248;-68
2024/02/27 12:02:35;;;;;;;3.22;2.95;;;;;;;;;;5056078;28;20442;-68
2024/02/27 12:05:01;;;;;;;3.67;2.63;;;;;;;;;;5055475;28;20021;-68
2024/02/27 12:07:31;;;;;;;2.92;2.72;;;;;;;;;;5055656;28;20040;-68
2024/02/27 12:10:06;;;;;;;4.43;3.55;;;;;;;;;;5055677;28;20122;-68
2024/02/27 12:12:32;;;;;;;4.13;3.55;;;;;;;;;;5055416;28;20056;-68
2024/02/27 12:14:58;;;;;;;3.75;3.22;;;;;;;;;;5054042;28;20028;-68
2024/02/27 12:17:26;;;;;;;3.53;3.28;;;;;;;;;;5037475;28;20033;-68
2024/02/27 12:19:52;;;;;;;5.25;3.75;;;;;;;;;;5054030;28;20400;-68
2024/02/27 12:22:17;;;;;;;4.40;3.53;;;;;;;;;;5053956;28;20140;-68
2024/02/27 12:24:43;;;;;;;3.47;3.25;;;;;;;;;;5054660;28;20508;-68
2024/02/27 12:27:09;;;;;;;4.25;3.50;;;;;;;;;;5054977;28;20131;-68
2024/02/27 12:29:34;;;;;;;3.70;3.35;;;;;;;;;;5055311;28;20032;-68
2024/02/27 12:32:00;;;;;;;6.25;3.60;;;;;;;;;;5055243;28;20032;-68
2024/02/27 12:34:30;;;;;;;3.78;3.45;;;;;;;;;;5054955;28;20032;-68
2024/02/27 12:36:56;;;;;;;4.18;3.35;;;;;;;;;;5055421;28;20597;-68
2024/02/27 12:39:23;;;;;;;4.32;3.80;;;;;;;;;;5054880;28;20053;-68
2024/02/27 12:41:48;;;;;;;3.45;3.17;;;;;;;;;;5055647;28;20033;-68
2024/02/27 12:44:13;;;;;;;3.90;3.50;;;;;;;;;;5056376;28;20132;-69
2024/02/27 12:46:39;;;;;;;5.45;3.72;;;;;;;;;;5056008;28;20078;-68
2024/02/27 12:49:04;;;;;;;4.03;3.30;;;;;;;;;;5054655;28;20029;-68
2024/02/27 12:51:30;;;;;;;4.07;2.92;;;;;;;;;;5054843;28;20029;-68
2024/02/27 12:53:55;;;;;;;4.03;3.58;;;;;;;;;;5054863;28;20020;-68
2024/02/27 12:56:21;;;;;;;3.67;3.38;;;;;;;;;;5054602;28;20040;-68
2024/02/27 12:58:50;;;;;;;4.72;3.67;;;;;;;;;;5053215;28;20041;-68
2024/02/27 13:01:16;;;;;;;3.65;3.15;;;;;;;;;;5054719;28;20060;-68
2024/02/27 13:03:41;;;;;;;4.22;3.35;;;;;;;;;;5054683;28;20021;-68
2024/02/27 13:06:06;;;;;;;4.07;3.58;;;;;;;;;;5054551;28;20060;-68
2024/02/27 13:08:35;;;;;;;5.40;3.55;;;;;;;;;;5076499;22;20135;-68
2024/02/27 13:11:00;;;;;;;4.25;3.25;;;;;;;;;;5053360;28;20029;-63
2024/02/27 13:13:30;;;;;;;4.22;3.67;;;;;;;;;;5054508;28;20029;-62
2024/02/27 13:15:56;;;;;;;6.82;3.92;;;;;;;;;;5054489;28;20376;-63
2024/02/27 13:18:28;;;;;;;5.88;3.95;;;;;;;;;;5086701;22;20064;-62
2024/02/27 13:20:53;;;;;;;10.07;4.25;;;;;;;;;;5122440;22;20120;-63
2024/02/27 13:23:20;;;;;;;5.47;3.72;;;;;;;;;;5114394;28;20054;-62
2024/02/27 13:25:48;;;;;;;3.80;3.50;;;;;;;;;;5115125;28;20039;-62
2024/02/27 13:28:13;;;;;;;7.15;3.92;;;;;;;;;;5115031;28;20032;-62
2024/02/27 13:30:39;;;;;;;3.33;3.03;;;;;;;;;;5114901;28;20035;-61
2024/02/27 13:33:36;;;;;;;8.75;4.00;;;;;;;;;;5113561;28;20024;-61
2024/02/27 13:36:04;;;;;;;5.93;3.65;;;;;;;;;;5114977;28;20341;-62
2024/02/27 13:38:30;;;;;;;4.82;4.35;;;;;;;;;;5114282;28;20027;-62
2024/02/27 13:40:56;;;;;;;4.75;4.00;;;;;;;;;;5114350;28;20028;-61
2024/02/27 13:43:22;;;;;;;7.07;4.05;;;;;;;;;;5114320;28;20055;-62
2024/02/27 13:45:47;;;;;;;8.63;3.80;;;;;;;;;;5114555;28;20126;-62
2024/02/27 13:48:13;;;;;;;8.55;4.70;;;;;;;;;;5114721;28;20073;-62
2024/02/27 13:50:38;;;;;;;4.18;3.80;;;;;;;;;;5096550;28;20024;-62
2024/02/27 13:53:06;;;;;;;6.50;3.95;;;;;;;;;;5114769;28;20576;-62
2024/02/27 13:55:31;;;;;;;9.07;6.28;;;;;;;;;;5114162;28;20059;-62
2024/02/27 13:57:57;;;;;;;4.90;3.83;;;;;;;;;;5095880;28;20058;-62
2024/02/27 14:00:22;;;;;;;7.25;4.47;;;;;;;;;;5114978;28;20092;-61
2024/02/27 14:02:48;;;;;;;5.45;4.22;;;;;;;;;;5115908;28;20024;-61
2024/02/27 14:05:14;;;;;;;8.10;5.32;;;;;;;;;;5115157;28;20439;-61
2024/02/27 14:07:39;;;;;;;6.63;5.63;;;;;;;;;;5095922;28;20080;-62
2024/02/27 14:10:04;;;;;;;6.22;4.15;;;;;;;;;;5094583;28;20040;-62
2024/02/27 14:12:30;;;;;;;7.93;4.75;;;;;;;;;;5112106;28;20055;-62
2024/02/27 14:14:56;;;;;;;6.55;4.47;;;;;;;;;;5112040;28;20031;-62
2024/02/27 14:17:21;;;;;;;6.70;5.63;;;;;;;;;;5112037;28;20036;-61
2024/02/27 14:19:46;;;;;;;6.07;5.07;;;;;;;;;;5093743;28;20030;-62
2024/02/27 14:22:14;;;;;;;4.32;3.78;;;;;;;;;;5113751;28;20043;-62
2024/02/27 14:24:39;;;;;;;6.93;4.38;;;;;;;;;;5096045;28;20051;-62